createdAt,value
2018-08-04T00:01:01.970Z,50.22
2018-08-04T00:03:30.378Z,51.09
2018-08-04T00:05:58.757Z,50.99
2018-08-04T00:08:27.131Z,50.93
2018-08-04T00:10:55.529Z,50.00
2018-08-04T00:13:23.928Z,50.64
2018-08-04T00:15:52.327Z,51.05
2018-08-04T00:18:20.740Z,51.60
2018-08-04T00:20:49.139Z,50.54
2018-08-04T00:23:17.477Z,51.07
2018-08-04T00:25:45.818Z,49.98
2018-08-04T00:28:14.183Z,51.03
2018-08-04T00:30:42.552Z,50.72
2018-08-04T00:33:11.161Z,51.29
2018-08-04T00:35:39.513Z,52.68
2018-08-04T00:38:07.859Z,51.17
2018-08-04T00:40:36.302Z,51.17
2018-08-04T00:43:04.648Z,50.23
2018-08-04T00:45:32.984Z,50.17
2018-08-04T00:48:01.382Z,50.83
2018-08-04T00:50:29.822Z,50.94
2018-08-04T00:52:58.141Z,50.99
2018-08-04T00:55:26.648Z,50.60
2018-08-04T00:57:54.976Z,50.64
2018-08-04T01:00:23.345Z,50.52
2018-08-04T01:02:51.691Z,50.54
2018-08-04T01:05:20.088Z,50.76
2018-08-04T01:07:48.404Z,51.09
2018-08-04T01:10:16.769Z,50.94
2018-08-04T01:12:45.100Z,51.28
2018-08-04T01:15:13.469Z,51.10
2018-08-04T01:17:41.791Z,50.85
2018-08-04T01:20:10.224Z,51.00
2018-08-04T01:22:38.554Z,50.63
2018-08-04T01:25:07.855Z,51.03
2018-08-04T01:27:36.221Z,51.42
2018-08-04T01:30:05.891Z,51.44
2018-08-04T01:32:34.201Z,50.71
2018-08-04T01:35:02.539Z,51.57
2018-08-04T01:37:30.877Z,51.30
2018-08-04T01:39:59.259Z,50.92
2018-08-04T01:42:27.624Z,50.97
2018-08-04T01:44:56.003Z,50.38
2018-08-04T01:47:24.327Z,50.78
2018-08-04T01:49:52.658Z,50.68
2018-08-04T01:52:20.991Z,50.94
2018-08-04T01:54:49.297Z,50.36
2018-08-04T01:57:17.646Z,50.41
2018-08-04T01:59:46.019Z,50.99
2018-08-04T02:02:14.387Z,51.18
2018-08-04T02:04:42.742Z,50.50
2018-08-04T02:07:11.125Z,50.86
2018-08-04T02:09:39.443Z,51.24
2018-08-04T02:12:07.772Z,50.61
2018-08-04T02:14:36.089Z,51.00
2018-08-04T02:17:04.435Z,51.33
2018-08-04T02:19:32.797Z,51.35
2018-08-04T02:22:01.288Z,50.93
2018-08-04T02:24:29.610Z,51.47
2018-08-04T02:26:57.951Z,50.58
2018-08-04T02:29:26.339Z,51.47
2018-08-04T02:31:54.698Z,51.10
2018-08-04T02:34:23.029Z,50.91
2018-08-04T02:36:51.333Z,51.81
2018-08-04T02:39:19.720Z,51.28
2018-08-04T02:41:48.033Z,51.71
2018-08-04T02:44:16.380Z,51.93
2018-08-04T02:46:44.686Z,52.00
2018-08-04T02:49:13.043Z,52.08
2018-08-04T02:51:41.359Z,51.51
2018-08-04T02:54:09.748Z,51.84
2018-08-04T02:56:38.084Z,52.25
2018-08-04T02:59:06.489Z,52.16
2018-08-04T03:01:34.777Z,53.11
2018-08-04T03:04:03.387Z,53.60
2018-08-04T03:06:31.866Z,53.23
2018-08-04T03:09:00.258Z,53.01
2018-08-04T03:11:28.584Z,52.79
2018-08-04T03:13:56.926Z,52.69
2018-08-04T03:16:25.269Z,53.50
2018-08-04T03:18:53.602Z,54.42
2018-08-04T03:21:22.081Z,53.83
2018-08-04T03:23:50.407Z,54.34
2018-08-04T03:26:18.726Z,54.52
2018-08-04T03:28:47.067Z,54.48
2018-08-04T03:31:15.414Z,54.38
2018-08-04T03:33:43.777Z,54.63
2018-08-04T03:36:12.113Z,54.52
2018-08-04T03:38:40.413Z,54.11
2018-08-04T03:41:08.877Z,54.28
2018-08-04T03:43:37.194Z,54.63
2018-08-04T03:46:11.916Z,54.55
2018-08-04T03:48:40.247Z,54.47
2018-08-04T03:51:08.606Z,54.39
2018-08-04T03:53:36.914Z,54.62
2018-08-04T03:56:05.248Z,55.77
2018-08-04T03:58:33.584Z,55.71
2018-08-04T04:01:01.989Z,56.64
2018-08-04T04:03:30.363Z,56.93
2018-08-04T04:05:58.665Z,56.76
2018-08-04T04:08:27.025Z,56.47
2018-08-04T04:10:55.366Z,56.08
2018-08-04T04:13:23.710Z,55.48
2018-08-04T04:15:52.077Z,54.82
2018-08-04T04:18:20.399Z,55.42
2018-08-04T04:20:48.822Z,54.54
2018-08-04T04:23:17.133Z,55.67
2018-08-04T04:25:45.501Z,55.61
2018-08-04T04:28:13.823Z,55.56
2018-08-04T04:30:42.164Z,55.28
2018-08-04T04:33:10.540Z,55.09
2018-08-04T04:35:38.878Z,53.52
2018-08-04T04:38:07.248Z,53.17
2018-08-04T04:40:35.639Z,53.07
2018-08-04T04:43:03.988Z,52.87
2018-08-04T04:45:32.360Z,52.65
2018-08-04T04:48:00.679Z,52.71
2018-08-04T04:50:29.041Z,53.69
2018-08-04T04:52:57.379Z,54.82
2018-08-04T04:55:25.735Z,55.30
2018-08-04T04:57:54.194Z,55.78
2018-08-04T05:00:22.903Z,56.69
2018-08-04T05:02:51.226Z,55.79
2018-08-04T05:05:19.624Z,54.64
2018-08-04T05:07:47.968Z,55.00
2018-08-04T05:10:16.551Z,55.42
2018-08-04T05:12:44.904Z,55.69
2018-08-04T05:15:13.250Z,55.27
2018-08-04T05:17:41.624Z,54.41
2018-08-04T05:20:09.985Z,55.05
2018-08-04T05:22:38.345Z,54.81
2018-08-04T05:25:06.917Z,53.99
2018-08-04T05:27:35.312Z,54.27
2018-08-04T05:30:03.787Z,54.63
2018-08-04T05:32:32.133Z,54.01
2018-08-04T05:35:00.458Z,54.27
2018-08-04T05:37:28.911Z,54.12
2018-08-04T05:39:57.179Z,55.29
2018-08-04T05:42:25.767Z,55.30
2018-08-04T05:44:54.110Z,54.60
2018-08-04T05:47:22.467Z,55.02
2018-08-04T05:49:50.820Z,54.58
2018-08-04T05:52:19.187Z,55.24
2018-08-04T05:54:47.526Z,54.88
2018-08-04T05:57:15.855Z,54.44
2018-08-04T05:59:44.192Z,54.40
2018-08-04T06:02:12.663Z,54.36
2018-08-04T06:04:41.042Z,53.71
2018-08-04T06:07:09.374Z,53.65
2018-08-04T06:09:37.749Z,54.35
2018-08-04T06:12:06.112Z,52.73
2018-08-04T06:14:34.470Z,52.85
2018-08-04T06:17:02.768Z,53.17
2018-08-04T06:19:31.140Z,53.35
2018-08-04T06:21:59.495Z,53.29
2018-08-04T06:24:27.829Z,53.03
2018-08-04T06:26:56.190Z,52.56
2018-08-04T06:29:24.509Z,52.08
2018-08-04T06:31:52.884Z,51.66
2018-08-04T06:34:21.209Z,52.27
2018-08-04T06:36:49.565Z,51.81
2018-08-04T06:39:17.886Z,51.59
2018-08-04T06:41:46.285Z,51.47
2018-08-04T06:44:14.821Z,50.52
2018-08-04T06:46:43.204Z,50.78
2018-08-04T06:49:11.631Z,50.53
2018-08-04T06:51:39.948Z,50.70
2018-08-04T06:54:08.336Z,51.48
2018-08-04T06:56:36.765Z,50.81
2018-08-04T06:59:05.100Z,50.27
2018-08-04T07:01:33.424Z,51.04
2018-08-04T07:04:01.801Z,50.57
2018-08-04T07:06:30.190Z,50.84
2018-08-04T07:08:58.573Z,50.25
2018-08-04T07:11:27.319Z,50.05
2018-08-04T07:13:55.656Z,49.58
2018-08-04T07:16:24.056Z,49.27
2018-08-04T07:18:52.487Z,49.95
2018-08-04T07:21:20.883Z,49.25
2018-08-04T07:23:49.281Z,49.83
2018-08-04T07:26:17.617Z,50.05
2018-08-04T07:28:46.029Z,49.81
2018-08-04T07:31:14.783Z,50.04
2018-08-04T07:33:43.135Z,50.19
2018-08-04T07:36:11.500Z,51.25
2018-08-04T07:38:39.863Z,50.95
2018-08-04T07:41:08.236Z,51.16
2018-08-04T07:43:36.697Z,50.65
2018-08-04T07:46:05.114Z,49.96
2018-08-04T07:48:33.432Z,49.42
2018-08-04T07:51:01.818Z,48.67
2018-08-04T07:53:30.263Z,48.79
2018-08-04T07:55:58.706Z,49.78
2018-08-04T07:58:27.020Z,49.29
2018-08-04T08:00:55.854Z,50.36
2018-08-04T08:03:24.218Z,50.63
2018-08-04T08:05:52.549Z,49.49
2018-08-04T08:08:20.927Z,49.42
2018-08-04T08:10:49.614Z,49.80
2018-08-04T08:13:17.897Z,49.46
2018-08-04T08:15:46.222Z,50.51
2018-08-04T08:18:14.560Z,50.91
2018-08-04T08:20:42.932Z,51.10
2018-08-04T08:23:11.332Z,51.33
2018-08-04T08:25:40.654Z,50.93
2018-08-04T08:28:09.042Z,51.08
2018-08-04T08:30:37.452Z,50.34
2018-08-04T08:33:05.879Z,50.74
2018-08-04T08:35:34.228Z,50.25
2018-08-04T08:38:02.599Z,50.79
2018-08-04T08:40:30.998Z,50.89
2018-08-04T08:42:59.363Z,50.73
2018-08-04T08:45:27.717Z,50.35
2018-08-04T08:47:56.257Z,49.22
2018-08-04T08:50:24.652Z,49.33
2018-08-04T08:52:52.988Z,48.87
2018-08-04T08:55:21.358Z,48.84
2018-08-04T08:57:49.693Z,49.53
2018-08-04T09:00:18.083Z,48.85
2018-08-04T09:02:46.459Z,47.53
2018-08-04T09:05:14.834Z,48.12
2018-08-04T09:07:43.202Z,48.45
2018-08-04T09:10:12.932Z,47.63
2018-08-04T09:12:41.821Z,46.73
2018-08-04T09:15:10.230Z,46.60
2018-08-04T09:17:38.598Z,46.85
2018-08-04T09:20:08.077Z,45.97
2018-08-04T09:22:36.486Z,45.99
2018-08-04T09:25:06.128Z,45.95
2018-08-04T09:27:34.882Z,45.55
2018-08-04T09:30:03.280Z,46.30
2018-08-04T09:32:31.636Z,45.77
2018-08-04T09:34:59.978Z,45.27
2018-08-04T09:37:28.326Z,44.79
2018-08-04T09:39:56.789Z,44.58
2018-08-04T09:42:25.221Z,43.23
2018-08-04T09:44:53.618Z,43.46
2018-08-04T09:47:21.923Z,43.24
2018-08-04T09:49:50.292Z,44.13
2018-08-04T09:52:18.732Z,43.09
2018-08-04T09:54:47.112Z,43.96
2018-08-04T09:57:15.466Z,43.57
2018-08-04T09:59:43.962Z,41.80
2018-08-04T10:02:13.458Z,41.10
2018-08-04T10:04:42.187Z,40.75
2018-08-04T10:07:10.680Z,40.61
2018-08-04T10:09:38.997Z,40.09
2018-08-04T10:12:07.359Z,40.78
2018-08-04T10:14:35.645Z,40.03
2018-08-04T10:17:04.052Z,40.76
2018-08-04T10:19:32.443Z,39.95
2018-08-04T10:22:00.931Z,39.65
2018-08-04T10:24:29.268Z,39.90
2018-08-04T10:26:57.623Z,40.31
2018-08-04T10:29:26.025Z,41.08
2018-08-04T10:31:54.429Z,41.45
2018-08-04T10:34:22.810Z,40.33
2018-08-04T10:36:51.168Z,41.05
2018-08-04T10:39:19.542Z,41.11
2018-08-04T10:41:47.907Z,39.96
2018-08-04T10:44:16.289Z,40.01
2018-08-04T10:46:44.687Z,40.15
2018-08-04T10:49:13.016Z,40.02
2018-08-04T10:51:41.461Z,39.50
2018-08-04T10:54:09.871Z,39.68
2018-08-04T10:56:38.467Z,38.23
2018-08-04T10:59:07.346Z,38.36
2018-08-04T11:01:35.717Z,37.62
2018-08-04T11:04:04.200Z,37.58
2018-08-04T11:06:32.628Z,37.70
2018-08-04T11:09:01.033Z,38.61
2018-08-04T11:11:29.395Z,38.29
2018-08-04T11:13:57.737Z,37.10
2018-08-04T11:16:26.130Z,36.55
2018-08-04T11:18:54.488Z,36.02
2018-08-04T11:21:22.877Z,35.42
2018-08-04T11:23:51.227Z,36.23
2018-08-04T11:26:19.597Z,35.50
2018-08-04T11:28:47.971Z,35.37
2018-08-04T11:31:16.374Z,36.13
2018-08-04T11:33:44.747Z,35.98
2018-08-04T11:36:13.129Z,37.27
2018-08-04T11:38:41.450Z,35.95
2018-08-04T11:41:09.811Z,36.06
2018-08-04T11:43:38.144Z,35.66
2018-08-04T11:46:06.572Z,36.12
2018-08-04T11:48:34.937Z,36.33
2018-08-04T11:51:03.376Z,36.53
2018-08-04T11:53:31.875Z,35.58
2018-08-04T11:56:00.219Z,35.53
2018-08-04T11:58:28.619Z,34.89
2018-08-04T12:00:57.269Z,35.08
2018-08-04T12:03:25.640Z,35.29
2018-08-04T12:05:54.003Z,35.69
2018-08-04T12:08:22.358Z,37.03
2018-08-04T12:10:50.717Z,36.43
2018-08-04T12:13:19.059Z,36.71
2018-08-04T12:15:47.393Z,35.26
2018-08-04T12:18:15.771Z,35.31
2018-08-04T12:20:44.341Z,36.09
2018-08-04T12:23:12.817Z,35.49
2018-08-04T12:25:41.252Z,35.57
2018-08-04T12:28:09.626Z,35.47
2018-08-04T12:30:38.036Z,35.26
2018-08-04T12:33:06.897Z,36.36
2018-08-04T12:35:35.283Z,36.63
2018-08-04T12:38:03.773Z,36.47
2018-08-04T12:40:32.117Z,36.08
2018-08-04T12:43:00.492Z,36.67
2018-08-04T12:45:28.861Z,35.90
2018-08-04T12:47:57.196Z,36.42
2018-08-04T12:50:25.632Z,37.11
2018-08-04T12:52:54.037Z,37.51
2018-08-04T12:55:22.655Z,36.37
2018-08-04T12:57:51.018Z,35.58
2018-08-04T13:00:19.368Z,35.99
2018-08-04T13:02:47.731Z,35.47
2018-08-04T13:05:16.070Z,35.59
2018-08-04T13:07:44.385Z,35.55
2018-08-04T13:10:12.792Z,36.26
2018-08-04T13:12:41.115Z,35.42
2018-08-04T13:15:10.112Z,35.91
2018-08-04T13:17:38.444Z,35.30
2018-08-04T13:20:06.892Z,36.02
2018-08-04T13:22:35.269Z,36.29
2018-08-04T13:25:03.832Z,36.61
2018-08-04T13:27:32.209Z,36.54
2018-08-04T13:30:00.794Z,36.57
2018-08-04T13:32:29.105Z,35.68
2018-08-04T13:34:57.456Z,36.72
2018-08-04T13:37:25.804Z,36.33
2018-08-04T13:39:54.354Z,35.72
2018-08-04T13:42:22.813Z,35.93
2018-08-04T13:44:51.145Z,36.00
2018-08-04T13:47:19.492Z,36.17
2018-08-04T13:49:47.797Z,35.65
2018-08-04T13:52:16.202Z,36.24
2018-08-04T13:54:44.555Z,36.25
2018-08-04T13:57:12.989Z,35.75
2018-08-04T13:59:41.363Z,35.73
2018-08-04T14:02:09.812Z,36.33
2018-08-04T14:04:38.344Z,36.36
2018-08-04T14:07:06.704Z,36.85
2018-08-04T14:09:35.290Z,35.38
2018-08-04T14:12:03.707Z,35.42
2018-08-04T14:14:32.061Z,34.85
2018-08-04T14:17:00.548Z,35.07
2018-08-04T14:19:28.955Z,35.97
2018-08-04T14:21:57.317Z,36.09
2018-08-04T14:24:25.713Z,36.37
2018-08-04T14:26:54.394Z,35.17
2018-08-04T14:29:22.775Z,35.88
2018-08-04T14:31:51.171Z,35.40
2018-08-04T14:34:19.480Z,35.38
2018-08-04T14:36:48.060Z,34.97
2018-08-04T14:39:16.432Z,34.90
2018-08-04T14:41:44.845Z,35.25
2018-08-04T14:44:13.235Z,34.80
2018-08-04T14:46:41.633Z,35.37
2018-08-04T14:49:10.003Z,34.16
2018-08-04T14:51:38.331Z,33.47
2018-08-04T14:54:06.883Z,34.58
2018-08-04T14:56:35.311Z,34.57
2018-08-04T14:59:03.711Z,35.25
2018-08-04T15:01:32.101Z,34.93
2018-08-04T15:04:00.475Z,34.56
2018-08-04T15:06:28.847Z,35.14
2018-08-04T15:08:57.182Z,34.95
2018-08-04T15:11:25.608Z,35.31
2018-08-04T15:13:53.967Z,35.13
2018-08-04T15:16:22.347Z,34.74
2018-08-04T15:18:50.671Z,35.61
2018-08-04T15:21:19.048Z,35.70
2018-08-04T15:23:47.402Z,34.70
2018-08-04T15:26:15.746Z,34.85
2018-08-04T15:28:44.138Z,34.67
2018-08-04T15:31:12.495Z,35.02
2018-08-04T15:33:40.850Z,35.05
2018-08-04T15:36:09.249Z,35.88
2018-08-04T15:38:37.570Z,36.38
2018-08-04T15:41:05.903Z,36.28
2018-08-04T15:43:34.289Z,36.46
2018-08-04T15:46:02.669Z,35.78
2018-08-04T15:48:31.043Z,35.55
2018-08-04T15:50:59.386Z,36.62
2018-08-04T15:53:27.744Z,36.49
2018-08-04T15:55:56.543Z,36.13
2018-08-04T15:58:24.994Z,35.67
2018-08-04T16:00:53.322Z,36.42
2018-08-04T16:03:22.042Z,36.81
2018-08-04T16:05:50.457Z,35.96
2018-08-04T16:08:18.893Z,37.24
2018-08-04T16:10:47.272Z,37.45
2018-08-04T16:13:15.635Z,37.65
2018-08-04T16:15:44.008Z,38.05
2018-08-04T16:18:12.686Z,37.19
2018-08-04T16:20:41.058Z,37.12
2018-08-04T16:23:09.405Z,36.84
2018-08-04T16:25:37.798Z,36.36
2018-08-04T16:28:06.182Z,36.93
2018-08-04T16:30:34.557Z,36.93
2018-08-04T16:33:02.927Z,36.54
2018-08-04T16:35:31.293Z,36.84
2018-08-04T16:37:59.680Z,36.92
2018-08-04T16:40:28.069Z,36.89
2018-08-04T16:42:57.240Z,36.92
2018-08-04T16:45:25.932Z,37.81
2018-08-04T16:47:54.268Z,37.72
2018-08-04T16:50:22.581Z,37.66
2018-08-04T16:52:50.970Z,36.86
2018-08-04T16:55:19.324Z,37.58
2018-08-04T16:57:47.713Z,36.83
2018-08-04T17:00:16.156Z,37.76
2018-08-04T17:02:44.505Z,37.50
2018-08-04T17:05:12.855Z,37.10
2018-08-04T17:07:41.237Z,37.09
2018-08-04T17:10:09.556Z,38.27
2018-08-04T17:12:37.860Z,38.53
2018-08-04T17:15:06.401Z,38.49
2018-08-04T17:17:34.729Z,38.62
2018-08-04T17:20:03.178Z,38.68
2018-08-04T17:22:31.543Z,38.93
2018-08-04T17:24:59.894Z,39.94
2018-08-04T17:27:28.226Z,40.05
2018-08-04T17:29:56.589Z,40.34
2018-08-04T17:32:24.896Z,40.20
2018-08-04T17:34:53.246Z,41.63
2018-08-04T17:37:21.718Z,42.45
2018-08-04T17:39:50.000Z,43.04
2018-08-04T17:42:18.410Z,44.14
2018-08-04T17:44:46.805Z,43.76
2018-08-04T17:47:15.196Z,44.93
2018-08-04T17:49:43.540Z,44.45
2018-08-04T17:52:11.860Z,45.14
2018-08-04T17:54:40.334Z,45.08
2018-08-04T17:57:08.696Z,44.72
2018-08-04T17:59:37.055Z,44.86
2018-08-04T18:02:05.462Z,45.68
2018-08-04T18:04:33.841Z,45.11
2018-08-04T18:07:02.222Z,46.20
2018-08-04T18:09:30.551Z,46.58
2018-08-04T18:11:58.955Z,46.20
2018-08-04T18:14:27.305Z,46.59
2018-08-04T18:16:55.773Z,47.40
2018-08-04T18:19:24.088Z,47.08
2018-08-04T18:21:52.530Z,47.08
2018-08-04T18:24:20.910Z,47.19
2018-08-04T18:26:49.291Z,47.81
2018-08-04T18:29:17.692Z,47.55
2018-08-04T18:31:46.097Z,48.26
2018-08-04T18:34:14.461Z,47.90
2018-08-04T18:36:42.787Z,48.05
2018-08-04T18:39:11.291Z,48.21
2018-08-04T18:41:39.858Z,48.34
2018-08-04T18:44:08.406Z,49.35
2018-08-04T18:46:36.789Z,49.70
2018-08-04T18:49:05.152Z,49.89
2018-08-04T18:51:33.539Z,49.84
2018-08-04T18:54:01.926Z,49.94
2018-08-04T18:56:30.942Z,50.21
2018-08-04T18:58:59.300Z,49.53
2018-08-04T19:01:27.712Z,50.53
2018-08-04T19:03:56.096Z,49.77
2018-08-04T19:06:24.429Z,50.58
2018-08-04T19:08:52.755Z,50.02
2018-08-04T19:11:21.126Z,50.06
2018-08-04T19:13:49.463Z,50.90
2018-08-04T19:16:17.804Z,50.96
2018-08-04T19:18:46.179Z,51.27
2018-08-04T19:21:14.569Z,50.84
2018-08-04T19:23:42.949Z,50.92
2018-08-04T19:26:11.327Z,51.43
2018-08-04T19:28:39.738Z,51.31
2018-08-04T19:31:08.068Z,52.37
2018-08-04T19:33:36.458Z,52.01
2018-08-04T19:36:04.859Z,51.72
2018-08-04T19:38:33.357Z,51.87
2018-08-04T19:41:01.856Z,52.21
2018-08-04T19:43:30.197Z,52.47
2018-08-04T19:45:58.585Z,53.43
2018-08-04T19:48:26.956Z,53.11
2018-08-04T19:50:55.352Z,53.93
2018-08-04T19:53:23.692Z,54.59
2018-08-04T19:55:52.005Z,54.33
2018-08-04T19:58:20.385Z,54.99
2018-08-04T20:00:48.730Z,55.86
2018-08-04T20:03:17.123Z,56.25
2018-08-04T20:05:45.481Z,55.73
2018-08-04T20:08:14.108Z,56.19
2018-08-04T20:10:42.489Z,56.44
2018-08-04T20:13:10.887Z,56.12
2018-08-04T20:15:39.243Z,57.15
2018-08-04T20:18:07.767Z,56.78
2018-08-04T20:20:36.143Z,57.80
2018-08-04T20:23:04.621Z,57.50
2018-08-04T20:25:33.216Z,56.80
2018-08-04T20:28:01.771Z,57.34
2018-08-04T20:30:30.181Z,57.85
2018-08-04T20:32:58.616Z,57.93
2018-08-04T20:35:26.981Z,57.99
2018-08-04T20:37:55.315Z,58.13
2018-08-04T20:40:23.629Z,57.69
2018-08-04T20:42:52.000Z,57.48
2018-08-04T20:45:20.494Z,57.78
2018-08-04T20:47:48.821Z,57.58
2018-08-04T20:50:17.158Z,58.56
2018-08-04T20:52:45.537Z,58.87
2018-08-04T20:55:13.853Z,58.19
2018-08-04T20:57:42.287Z,58.19
2018-08-04T21:00:10.653Z,59.16
2018-08-04T21:02:39.044Z,59.16
2018-08-04T21:05:07.388Z,59.27
2018-08-04T21:07:35.764Z,59.22
2018-08-04T21:10:04.156Z,59.40
2018-08-04T21:12:32.572Z,58.76
2018-08-04T21:15:00.903Z,59.39
2018-08-04T21:17:29.328Z,59.66
2018-08-04T21:19:57.645Z,59.70
2018-08-04T21:22:26.268Z,59.84
2018-08-04T21:24:54.978Z,59.90
2018-08-04T21:27:23.358Z,60.58
2018-08-04T21:29:51.699Z,60.79
2018-08-04T21:32:20.063Z,61.02
2018-08-04T21:34:48.513Z,60.46
2018-08-04T21:37:16.848Z,60.51
2018-08-04T21:39:45.221Z,61.08
2018-08-04T21:42:13.930Z,61.40
2018-08-04T21:44:42.327Z,60.96
2018-08-04T21:47:10.646Z,61.37
2018-08-04T21:49:39.005Z,62.08
2018-08-04T21:52:07.506Z,62.07
2018-08-04T21:54:35.928Z,61.71
2018-08-04T21:57:04.260Z,62.16
2018-08-04T21:59:32.649Z,62.38
2018-08-04T22:02:01.135Z,62.03
2018-08-04T22:04:29.392Z,62.70
2018-08-04T22:08:07.782Z,62.29
2018-08-04T22:10:36.120Z,62.66
2018-08-04T22:13:04.622Z,62.92
2018-08-04T22:15:33.024Z,62.56
2018-08-04T22:18:01.556Z,62.93
2018-08-04T22:20:30.387Z,62.68
2018-08-04T22:22:58.888Z,62.83
2018-08-04T22:25:28.568Z,63.91
2018-08-04T22:27:57.377Z,62.95
2018-08-04T22:30:26.166Z,63.89
2018-08-04T22:32:54.567Z,63.18
2018-08-04T22:35:23.164Z,64.38
2018-08-04T22:37:51.519Z,63.40
2018-08-04T22:40:20.719Z,64.21
2018-08-04T22:42:49.132Z,64.00
2018-08-04T22:46:24.146Z,64.36
2018-08-04T22:48:53.639Z,63.99
2018-08-04T22:51:28.171Z,63.69
2018-08-04T22:53:56.936Z,63.84
2018-08-04T22:56:25.638Z,63.89
2018-08-04T22:58:55.023Z,64.10
2018-08-04T23:01:23.355Z,64.87
2018-08-04T23:03:51.721Z,64.35
2018-08-04T23:06:20.037Z,65.03
2018-08-04T23:08:48.399Z,64.39
2018-08-04T23:11:16.769Z,65.11
2018-08-04T23:13:45.081Z,64.96
2018-08-04T23:16:13.475Z,65.21
2018-08-04T23:18:41.797Z,65.67
2018-08-04T23:21:10.147Z,65.92
2018-08-04T23:23:38.444Z,65.72
2018-08-04T23:26:06.972Z,66.60
2018-08-04T23:28:35.279Z,65.71
2018-08-04T23:31:03.660Z,65.85
2018-08-04T23:33:32.039Z,65.81
2018-08-04T23:36:00.436Z,66.18
2018-08-04T23:38:28.790Z,65.98
2018-08-04T23:40:57.136Z,65.84
2018-08-04T23:43:25.516Z,66.60
2018-08-04T23:45:53.950Z,66.43
2018-08-04T23:48:22.294Z,66.42
2018-08-04T23:50:50.639Z,66.97
2018-08-04T23:53:19.026Z,67.39
2018-08-04T23:55:47.536Z,66.95
2018-08-04T23:58:15.889Z,67.51
